Terminal Aerodrome Forecast
Issued by NWS Jacksonville, FL

Home | Current Version | Previous Version | Text Only | Print | Product List | Glossary On
Versions: 1 2 3 4 5 6 7 8 9 10 11 12 13 14 15 16 17 18 19 20 21 22 23 24
000
FTUS42 KJAX 221700
TAFGNV
TAF
KGNV 221739Z 2218/2318 33004KT P6SM SCT045
     FM222000 30004KT P6SM VCTS SCT040CB
      TEMPO 2221/2224 TSRA BKN035CB
     FM230000 23003KT P6SM SCT250
     FM231400 31005KT P6SM FEW035=

USA.gov is the U.S. government's official web portal to all federal, state and local government web resources and services.